createdAt,value
2023-03-14T00:01:32.801Z,1459
2023-03-14T00:07:03.377Z,1439
2023-03-14T00:12:33.904Z,1373
2023-03-14T00:18:04.335Z,1470
2023-03-14T00:23:33.840Z,1435
2023-03-14T00:29:04.323Z,1448
2023-03-14T00:35:39.905Z,1474
2023-03-14T00:41:10.370Z,1493
2023-03-14T00:46:41.015Z,1457
2023-03-14T00:52:11.420Z,1453
2023-03-14T00:57:41.923Z,1460
2023-03-14T01:03:12.680Z,1488
2023-03-14T01:08:42.997Z,1485
2023-03-14T01:14:13.442Z,1498
2023-03-14T01:19:44.246Z,1500
2023-03-14T01:25:14.684Z,1482
2023-03-14T01:30:45.152Z,1492
2023-03-14T01:36:15.897Z,1487
2023-03-14T01:41:46.337Z,1456
2023-03-14T01:47:16.930Z,1468
2023-03-14T01:52:47.629Z,1425
2023-03-14T01:58:18.019Z,1426
2023-03-14T02:03:47.588Z,1425
2023-03-14T02:09:18.073Z,1440
2023-03-14T02:14:48.459Z,1467
2023-03-14T02:20:17.952Z,1490
2023-03-14T02:25:48.436Z,1513
2023-03-14T02:31:18.969Z,1490
2023-03-14T02:36:48.391Z,1504
2023-03-14T02:42:18.887Z,1496
2023-03-14T02:47:49.363Z,1512
2023-03-14T02:53:18.856Z,1508
2023-03-14T02:58:49.322Z,1506
2023-03-14T03:04:19.784Z,1506
2023-03-14T03:09:50.368Z,1504
2023-03-14T03:15:20.873Z,1523
2023-03-14T03:20:51.499Z,1501
2023-03-14T03:26:21.987Z,1508
2023-03-14T03:31:52.496Z,1520
2023-03-14T03:37:23.047Z,1508
2023-03-14T03:42:53.667Z,1504
2023-03-14T03:48:24.203Z,1509
2023-03-14T03:53:53.651Z,1503
2023-03-14T03:59:24.111Z,1499
2023-03-14T04:04:53.622Z,1482
2023-03-14T04:10:24.076Z,1482
2023-03-14T04:15:54.682Z,1497
2023-03-14T04:21:25.210Z,1504
2023-03-14T04:26:55.650Z,1503
2023-03-14T04:32:25.139Z,1495
2023-03-14T04:37:55.635Z,1507
2023-03-14T04:43:26.192Z,1538
2023-03-14T04:48:56.669Z,1541
2023-03-14T04:54:27.166Z,1561
2023-03-14T04:59:56.694Z,1555
2023-03-14T05:05:27.184Z,1397
2023-03-14T05:10:57.698Z,1394
2023-03-14T05:16:28.347Z,1374
2023-03-14T05:21:58.719Z,1311
2023-03-14T05:27:28.233Z,1294
2023-03-14T05:32:58.833Z,1281
2023-03-14T05:38:29.190Z,1265
2023-03-14T05:43:59.932Z,1251
2023-03-14T05:49:30.251Z,1232
2023-03-14T05:55:00.830Z,1221
2023-03-14T06:00:31.468Z,1215
2023-03-14T06:06:01.913Z,1196
2023-03-14T06:11:32.384Z,1190
2023-03-14T06:17:03.086Z,1179
2023-03-14T06:22:33.624Z,1166
2023-03-14T06:28:04.119Z,1161
2023-03-14T06:33:34.712Z,1154
2023-03-14T06:39:05.150Z,1144
2023-03-14T06:44:34.651Z,1137
2023-03-14T06:50:05.155Z,1135
2023-03-14T06:55:35.617Z,1126
2023-03-14T07:01:05.205Z,1118
2023-03-14T07:06:35.668Z,1114
2023-03-14T07:12:06.108Z,1105
2023-03-14T07:17:36.664Z,1098
2023-03-14T07:23:07.220Z,1099
2023-03-14T07:28:37.785Z,1092
2023-03-14T07:34:08.250Z,1089
2023-03-14T07:39:38.760Z,1081
2023-03-14T07:45:09.355Z,1077
2023-03-14T07:50:39.816Z,1069
2023-03-14T07:56:09.335Z,1066
2023-03-14T08:01:39.902Z,1064
2023-03-14T08:07:10.348Z,1058
2023-03-14T08:12:41.021Z,1054
2023-03-14T08:18:11.431Z,1040
2023-03-14T08:23:41.896Z,1034
2023-03-14T08:29:11.493Z,1038
2023-03-14T08:34:41.912Z,1034
2023-03-14T08:40:12.362Z,1025
2023-03-14T08:45:42.982Z,1020
2023-03-14T08:51:13.424Z,1018
2023-03-14T08:56:43.880Z,1014
2023-03-14T09:02:14.527Z,1008
2023-03-14T09:07:44.975Z,1012
2023-03-14T09:13:15.441Z,1016
2023-03-14T09:18:46.201Z,1006
2023-03-14T09:24:16.523Z,1005
2023-03-14T09:29:46.982Z,997
2023-03-14T09:35:17.637Z,994
2023-03-14T09:40:48.070Z,993
2023-03-14T09:46:18.831Z,995
2023-03-14T09:51:49.232Z,994
2023-03-14T09:57:19.678Z,990
2023-03-14T10:02:49.167Z,992
2023-03-14T10:08:21.111Z,984
2023-03-14T10:13:50.223Z,981
2023-03-14T10:19:20.678Z,976
2023-03-14T10:24:51.182Z,972
2023-03-14T10:30:21.945Z,970
2023-03-14T10:35:52.406Z,964
2023-03-14T10:41:22.962Z,960
2023-03-14T10:46:52.313Z,964
2023-03-14T10:52:26.398Z,963
2023-03-14T10:57:53.404Z,963
2023-03-14T11:03:24.087Z,956
2023-03-14T11:08:54.442Z,956
2023-03-14T11:14:25.953Z,958
2023-03-14T11:19:54.519Z,949
2023-03-14T11:25:24.974Z,945
2023-03-14T11:30:55.541Z,943
2023-03-14T11:36:26.029Z,938
2023-03-14T11:41:55.433Z,942
2023-03-14T11:47:25.927Z,942
2023-03-14T11:52:56.456Z,929
2023-03-14T11:58:27.062Z,924
2023-03-14T12:03:57.537Z,929
2023-03-14T12:09:28.023Z,926
2023-03-14T12:14:58.494Z,921
2023-03-14T12:20:29.100Z,918
2023-03-14T12:25:59.579Z,909
2023-03-14T12:31:30.149Z,904
2023-03-14T12:36:59.566Z,904
2023-03-14T12:42:43.925Z,900
2023-03-14T12:48:00.474Z,898
2023-03-14T12:53:30.273Z,899
2023-03-14T12:59:00.423Z,899
2023-03-14T13:04:39.045Z,903
2023-03-14T13:10:01.594Z,905
2023-03-14T13:15:31.991Z,904
2023-03-14T13:21:02.441Z,905
2023-03-14T13:26:33.085Z,918
2023-03-14T13:32:03.532Z,915
2023-03-14T13:37:34.144Z,917
2023-03-14T13:43:04.692Z,926
2023-03-14T13:48:35.099Z,932
2023-03-14T13:54:05.691Z,941
2023-03-14T13:59:36.204Z,942
2023-03-14T14:05:06.815Z,949
2023-03-14T14:10:36.195Z,954
2023-03-14T14:16:06.728Z,965
2023-03-14T14:21:37.283Z,968
2023-03-14T14:27:07.750Z,973
2023-03-14T14:32:38.508Z,977
2023-03-14T14:38:07.716Z,982
2023-03-14T14:43:38.208Z,989
2023-03-14T14:49:08.823Z,997
2023-03-14T14:54:39.267Z,1003
2023-03-14T15:00:09.883Z,1013
2023-03-14T15:05:39.443Z,1019
2023-03-14T15:11:09.921Z,1033
2023-03-14T15:16:40.390Z,1037
2023-03-14T15:22:09.802Z,1049
2023-03-14T15:27:40.259Z,1052
2023-03-14T15:33:10.873Z,1056
2023-03-14T15:38:41.349Z,1066
2023-03-14T15:44:11.793Z,1075
2023-03-14T15:49:41.283Z,1075
2023-03-14T15:55:11.886Z,1083
2023-03-14T16:00:42.305Z,1090
2023-03-14T16:06:11.729Z,1095
2023-03-14T16:11:42.313Z,1102
2023-03-14T16:17:11.843Z,1105
2023-03-14T16:22:42.183Z,1118
2023-03-14T16:28:12.665Z,1117
2023-03-14T16:33:43.272Z,1114
2023-03-14T16:39:13.680Z,1121
2023-03-14T16:44:44.576Z,1117
2023-03-14T16:50:14.753Z,1122
2023-03-14T16:55:45.247Z,1122
2023-03-14T17:01:14.811Z,1124
2023-03-14T17:06:45.283Z,1132
2023-03-14T17:12:15.686Z,1132
2023-03-14T17:17:46.370Z,1135
2023-03-14T17:23:16.772Z,1141
2023-03-14T17:28:47.328Z,1145
2023-03-14T17:34:16.970Z,1146
2023-03-14T17:39:47.449Z,1149
2023-03-14T17:45:17.895Z,1151
2023-03-14T17:50:48.409Z,1160
2023-03-14T17:56:18.878Z,1163
2023-03-14T18:01:48.555Z,1178
2023-03-14T18:07:18.860Z,1179
2023-03-14T18:12:49.306Z,1171
2023-03-14T18:18:19.954Z,1172
2023-03-14T18:23:50.458Z,1166
2023-03-14T18:29:20.922Z,1166
2023-03-14T18:34:51.510Z,1162
2023-03-14T18:40:22.032Z,1157
2023-03-14T18:45:51.497Z,1155
2023-03-14T18:51:21.970Z,1148
2023-03-14T18:56:52.488Z,1148
2023-03-14T19:02:21.995Z,1141
2023-03-14T19:07:52.410Z,1177
2023-03-14T19:13:22.914Z,1253
2023-03-14T19:18:52.567Z,1367
2023-03-14T19:24:22.871Z,1373
2023-03-14T19:29:53.346Z,1403
2023-03-14T19:35:22.801Z,1439
2023-03-14T19:40:53.296Z,1456
2023-03-14T19:46:22.997Z,1474
2023-03-14T19:51:53.240Z,1501
2023-03-14T19:57:23.914Z,1514
2023-03-14T20:02:54.587Z,1533
2023-03-14T20:08:24.807Z,1569
2023-03-14T20:13:55.285Z,1596
2023-03-14T20:19:25.907Z,1628
2023-03-14T20:24:58.301Z,1653
2023-03-14T20:30:25.880Z,1672
2023-03-14T20:35:56.528Z,1676
2023-03-14T20:41:26.832Z,1692
2023-03-14T20:46:57.909Z,1675
2023-03-14T20:52:27.911Z,1699
2023-03-14T20:57:58.467Z,1716
2023-03-14T21:03:29.029Z,1725
2023-03-14T21:08:59.512Z,1736
2023-03-14T21:14:29.008Z,1712
2023-03-14T21:19:59.465Z,1713
2023-03-14T21:25:29.965Z,1719
2023-03-14T21:30:59.501Z,1738
2023-03-14T21:36:29.925Z,1733
2023-03-14T21:42:00.428Z,1735
2023-03-14T21:47:29.895Z,1727
2023-03-14T21:53:00.375Z,1732
2023-03-14T21:58:29.876Z,1740
2023-03-14T22:04:00.360Z,1735
2023-03-14T22:09:30.814Z,1747
2023-03-14T22:15:01.453Z,1740
2023-03-14T22:20:31.896Z,1810
2023-03-14T22:26:02.362Z,1801
2023-03-14T22:31:31.953Z,1801
2023-03-14T22:37:02.365Z,1801
2023-03-14T22:42:31.841Z,1770
2023-03-14T22:48:02.392Z,1769
2023-03-14T22:53:32.782Z,1796
2023-03-14T22:59:02.290Z,1840
2023-03-14T23:04:32.773Z,1857
2023-03-14T23:10:03.227Z,1786
2023-03-14T23:15:32.708Z,1819
2023-03-14T23:21:03.200Z,1815
2023-03-14T23:26:32.691Z,1805
2023-03-14T23:33:09.262Z,1823
2023-03-14T23:38:39.776Z,1817
2023-03-14T23:44:10.343Z,1835
2023-03-14T23:50:47.040Z,1831
2023-03-14T23:56:16.712Z,1821
